Aérodrome :
LOGIN :

S'inscrire | Disclaimer

   EN    FR    IT 

 










Légende :    VFR   VFR Marginal   IFR   IFR Intensif   IFR Très Intensif
Visi : 
Plafond : 
>= 8 km
>= 3000ft
5 à 8 km
1000 à 3000 ft
1500m à 5 km
500 à 1000 ft
800 à 1500m
200 à 500 ft
< 800m
< 200 ft
Symboles :   Orages  Brouillard  Fortes neiges  Fortes précipitations  Vent > 20 kt
SIGMETs :   Divers  Orages  Givrage  Turbulence  Onde Orograph.  Cendres Volcan.







- Altitude de l'aérodrome : 32 ft
- Code IATA : LKZ


EGUL - RAF Lakenheath

DERNIER METAR :
  • 232155Z 02003KT 9999 CLR 11/11 A2939 RMK AO2A SLP956 T01120112

TAF TAF EGUL
Valide du 23 à 20h jusqu'au 25 à 02h UTC


232012Z 2320/2502 07009KT 9999 FEW100 QNH2931INS
BECMG 2403/2404 10006KT 9000 BR FEW040 SCT130 QNH2929INS
BECMG 2407/2408 15010G15KT 9999 NSW FEW040 SCT075 QNH2928INS
BECMG 2412/2413 16015G25KT 9000 -SHRA BKN020 QNH2928INS
BECMG 2414/2415 17015G25KT 9999 NSW BKN020 QNH2931INS
BECMG 2417/2418 29009KT 9999 SCT035 QNH2939INS TX20/2411Z TN07/2404Z
Pas de NOTAMs connus pour ce terrain.



MET'MAP, la Météo Aéronautique d'un coup d'oeil ! - Copyright ORBIFLY Décembre 2007 - Disclaimer

ORBIFLY MET'MAP TEAM :

Programmation & Développement : Alexandra Zaïnal
Conception & Développement : Baudouin d'Aumeries
Co-Programmation & Développement : Marc-Olivier Méhu
Soutien technique & logistique : Manuel Goepfert

Contact : metmap@orbifly.com




SOURCES & CREDITS :

   NOAA